Time;durP1;ratioP1;P1;durP2;ratioP2;P2;SDS_P1;SDS_P2;PMS_P1;PMS_P2;Temp;Humidity;BMP_temperature;BMP_pressure;BME280_temperature;BME280_humidity;BME280_pressure;Samples;Min_cycle;Max_cycle;Signal;HPM_P1;HPM_P2
2022/11/03 00:02:25;;;;;;;4.93;2.03;;;;;;;;;;5036545;28;20459;-70
2022/11/03 00:04:52;;;;;;;10.13;2.10;;;;;;;;;;5042058;28;20461;-70
2022/11/03 00:07:20;;;;;;;5.70;2.17;;;;;;;;;;5055839;28;20546;-70
2022/11/03 00:09:48;;;;;;;9.27;3.13;;;;;;;;;;5052862;28;20462;-70
2022/11/03 00:12:32;;;;;;;6.43;1.80;;;;;;;;;;5053924;28;20457;-70
2022/11/03 00:15:02;;;;;;;6.00;2.73;;;;;;;;;;5051408;28;20984;-70
2022/11/03 00:17:30;;;;;;;8.07;2.30;;;;;;;;;;5035975;28;20525;-70
2022/11/03 00:20:09;;;;;;;5.43;2.60;;;;;;;;;;5035400;28;20476;-70
2022/11/03 00:22:57;;;;;;;3.70;2.10;;;;;;;;;;5044127;28;20836;-70
2022/11/03 00:25:24;;;;;;;5.97;2.47;;;;;;;;;;5013603;28;20549;-70
2022/11/03 00:28:00;;;;;;;7.27;1.90;;;;;;;;;;5043029;28;20777;-70
2022/11/03 00:30:29;;;;;;;9.23;1.90;;;;;;;;;;5034606;28;20435;-70
2022/11/03 00:33:03;;;;;;;4.53;2.70;;;;;;;;;;5035625;28;20717;-70
2022/11/03 00:35:30;;;;;;;3.40;1.80;;;;;;;;;;5035253;28;20760;-70
2022/11/03 00:37:57;;;;;;;5.77;2.50;;;;;;;;;;5035728;28;20473;-70
2022/11/03 00:40:29;;;;;;;7.87;1.80;;;;;;;;;;5035844;28;20456;-70
2022/11/03 00:42:57;;;;;;;4.30;2.40;;;;;;;;;;5035937;28;20465;-69
2022/11/03 00:45:24;;;;;;;10.77;2.03;;;;;;;;;;5035495;28;20493;-70
2022/11/03 00:50:36;;;;;;;3.80;1.70;;;;;;;;;;5036275;28;20508;-70
2022/11/03 00:53:03;;;;;;;6.07;2.37;;;;;;;;;;5034831;28;20788;-70
2022/11/03 00:55:30;;;;;;;7.57;2.50;;;;;;;;;;5036148;28;20465;-70
2022/11/03 00:57:58;;;;;;;12.50;2.00;;;;;;;;;;5035466;28;20488;-70
2022/11/03 01:00:25;;;;;;;10.13;2.47;;;;;;;;;;5036061;28;20875;-71
2022/11/03 01:02:52;;;;;;;3.77;2.07;;;;;;;;;;5035396;28;20454;-70
2022/11/03 01:08:06;;;;;;;10.77;1.90;;;;;;;;;;5034913;28;20520;-70
2022/11/03 01:10:36;;;;;;;7.67;2.07;;;;;;;;;;5035244;28;20571;-70
2022/11/03 01:13:03;;;;;;;4.70;1.77;;;;;;;;;;5035040;28;20450;-70
2022/11/03 01:15:31;;;;;;;6.20;1.97;;;;;;;;;;5036008;28;20549;-71
2022/11/03 01:17:58;;;;;;;6.07;2.20;;;;;;;;;;5035009;28;20793;-70
2022/11/03 01:20:25;;;;;;;7.53;2.10;;;;;;;;;;5035807;28;20616;-70
2022/11/03 01:22:53;;;;;;;6.20;2.20;;;;;;;;;;5034909;28;20504;-70
2022/11/03 01:25:23;;;;;;;5.20;1.90;;;;;;;;;;5035560;28;20466;-70
2022/11/03 01:27:51;;;;;;;3.40;1.97;;;;;;;;;;5051750;28;20635;-71
2022/11/03 01:30:21;;;;;;;4.40;2.47;;;;;;;;;;5054968;28;20480;-71
2022/11/03 01:32:55;;;;;;;5.90;2.70;;;;;;;;;;5054746;28;20829;-69
2022/11/03 01:35:24;;;;;;;4.63;2.30;;;;;;;;;;5054692;28;20454;-70
2022/11/03 01:37:57;;;;;;;4.57;1.70;;;;;;;;;;5054451;28;20460;-70
2022/11/03 01:40:26;;;;;;;8.23;2.30;;;;;;;;;;5054385;28;20460;-69
2022/11/03 01:42:55;;;;;;;8.23;2.70;;;;;;;;;;5053866;28;20457;-70
2022/11/03 01:45:22;;;;;;;5.53;2.07;;;;;;;;;;5054623;28;20485;-69
2022/11/03 01:47:51;;;;;;;9.07;2.20;;;;;;;;;;5050327;28;20567;-70
2022/11/03 01:50:24;;;;;;;6.43;2.67;;;;;;;;;;5051732;28;20536;-70
2022/11/03 01:52:54;;;;;;;8.90;2.83;;;;;;;;;;5035069;28;20459;-69
2022/11/03 01:55:24;;;;;;;4.50;2.40;;;;;;;;;;5035400;28;20457;-70
2022/11/03 01:57:54;;;;;;;9.70;2.57;;;;;;;;;;5034913;28;20446;-70
2022/11/03 02:00:22;;;;;;;3.23;1.87;;;;;;;;;;5035303;28;20469;-70
2022/11/03 02:02:49;;;;;;;5.80;2.33;;;;;;;;;;5034875;28;20447;-70
2022/11/03 02:05:16;;;;;;;3.50;2.10;;;;;;;;;;5035407;28;20490;-70
2022/11/03 02:07:48;;;;;;;3.10;1.70;;;;;;;;;;5034904;28;20821;-70
2022/11/03 02:10:16;;;;;;;5.13;2.57;;;;;;;;;;5034418;28;20550;-70
2022/11/03 02:12:45;;;;;;;4.30;2.37;;;;;;;;;;5034588;28;20459;-70
2022/11/03 02:15:14;;;;;;;5.73;1.80;;;;;;;;;;5034336;28;20458;-70
2022/11/03 02:17:42;;;;;;;7.10;2.10;;;;;;;;;;5035085;28;20813;-71
2022/11/03 02:20:12;;;;;;;5.17;2.00;;;;;;;;;;5034972;28;20473;-70
2022/11/03 02:22:54;;;;;;;6.20;2.60;;;;;;;;;;5034557;28;20558;-71
2022/11/03 02:25:34;;;;;;;3.03;1.60;;;;;;;;;;5023981;28;20511;-71
2022/11/03 02:28:02;;;;;;;5.03;2.60;;;;;;;;;;5037104;28;20494;-70
2022/11/03 02:30:32;;;;;;;3.70;2.40;;;;;;;;;;5038174;28;20462;-70
2022/11/03 02:33:03;;;;;;;7.40;2.40;;;;;;;;;;5038273;28;20541;-70
2022/11/03 02:35:33;;;;;;;5.20;2.37;;;;;;;;;;5037630;28;20512;-71
2022/11/03 02:38:02;;;;;;;6.03;2.20;;;;;;;;;;5038193;28;20908;-70
2022/11/03 02:40:31;;;;;;;3.87;1.63;;;;;;;;;;5036965;28;20540;-70
2022/11/03 02:42:59;;;;;;;6.77;2.63;;;;;;;;;;5037303;28;20866;-70
2022/11/03 02:45:26;;;;;;;5.70;2.13;;;;;;;;;;5037649;28;20455;-71
2022/11/03 02:47:58;;;;;;;6.10;1.83;;;;;;;;;;5037382;28;20489;-70
2022/11/03 02:50:27;;;;;;;6.80;1.87;;;;;;;;;;5037102;28;20882;-70
2022/11/03 02:52:54;;;;;;;7.47;2.17;;;;;;;;;;5037658;28;20860;-70
2022/11/03 02:55:32;;;;;;;9.50;2.80;;;;;;;;;;5037395;28;20897;-70
2022/11/03 02:58:03;;;;;;;4.10;2.17;;;;;;;;;;5037695;28;20454;-70
2022/11/03 03:00:32;;;;;;;6.20;2.03;;;;;;;;;;5037546;28;20871;-70
2022/11/03 03:03:04;;;;;;;3.10;1.33;;;;;;;;;;5037085;28;20450;-70
2022/11/03 03:05:32;;;;;;;3.47;1.93;;;;;;;;;;5037409;28;20454;-70
2022/11/03 03:08:01;;;;;;;5.00;1.77;;;;;;;;;;5037122;28;20539;-70
2022/11/03 03:10:33;;;;;;;6.73;2.13;;;;;;;;;;5036669;28;20585;-70
2022/11/03 03:13:02;;;;;;;6.20;2.00;;;;;;;;;;5037985;28;20458;-70
2022/11/03 03:15:35;;;;;;;3.40;1.77;;;;;;;;;;5036688;28;20457;-71
2022/11/03 03:18:09;;;;;;;6.00;1.87;;;;;;;;;;5036962;28;20832;-70
2022/11/03 03:20:42;;;;;;;4.83;1.70;;;;;;;;;;5036249;28;20450;-70
2022/11/03 03:23:12;;;;;;;3.57;1.57;;;;;;;;;;5037954;28;20455;-70
2022/11/03 03:25:41;;;;;;;3.43;1.70;;;;;;;;;;5036843;28;20461;-70
2022/11/03 03:28:11;;;;;;;6.23;2.03;;;;;;;;;;5037289;28;20486;-70
2022/11/03 03:30:39;;;;;;;4.37;1.90;;;;;;;;;;5036869;28;20462;-70
2022/11/03 03:33:08;;;;;;;3.60;1.60;;;;;;;;;;5036652;28;20807;-70
2022/11/03 03:35:37;;;;;;;4.30;1.40;;;;;;;;;;5036407;28;20462;-70
2022/11/03 03:38:06;;;;;;;4.93;2.00;;;;;;;;;;5036617;28;20460;-70
2022/11/03 03:40:36;;;;;;;5.40;1.50;;;;;;;;;;5037069;28;20465;-70
2022/11/03 03:43:04;;;;;;;2.63;1.33;;;;;;;;;;5036711;28;20481;-70
2022/11/03 03:45:32;;;;;;;6.23;2.20;;;;;;;;;;5036954;28;20520;-70
2022/11/03 03:48:00;;;;;;;9.67;1.80;;;;;;;;;;5036749;28;20486;-70
2022/11/03 03:50:28;;;;;;;3.63;1.97;;;;;;;;;;5036333;28;20447;-70
2022/11/03 03:52:55;;;;;;;4.13;1.70;;;;;;;;;;5036746;28;20519;-70
2022/11/03 03:55:26;;;;;;;3.77;1.47;;;;;;;;;;5036679;28;20442;-70
2022/11/03 03:57:53;;;;;;;7.20;2.40;;;;;;;;;;5036961;28;20660;-70
2022/11/03 04:00:20;;;;;;;7.10;2.20;;;;;;;;;;5037024;28;20457;-70
2022/11/03 04:02:48;;;;;;;5.20;1.93;;;;;;;;;;5037027;28;20473;-70
2022/11/03 04:05:16;;;;;;;6.33;2.07;;;;;;;;;;5036694;28;20516;-70
2022/11/03 04:07:50;;;;;;;4.23;1.40;;;;;;;;;;5036593;28;20489;-70
2022/11/03 04:10:18;;;;;;;3.10;1.80;;;;;;;;;;5036552;28;20920;-70
2022/11/03 04:23:43;;;;;;;9.13;2.00;;;;;;;;;;5035451;28;21155;-70
2022/11/03 04:26:12;;;;;;;11.20;3.97;;;;;;;;;;5035800;28;20454;-70
2022/11/03 04:28:39;;;;;;;6.27;2.00;;;;;;;;;;5035215;28;20501;-70
2022/11/03 04:31:07;;;;;;;2.33;1.53;;;;;;;;;;5035811;28;20450;-70
2022/11/03 04:33:35;;;;;;;4.80;1.47;;;;;;;;;;5036198;28;20442;-70
2022/11/03 04:36:16;;;;;;;8.10;2.00;;;;;;;;;;5036041;28;20465;-70
2022/11/03 04:38:47;;;;;;;5.87;1.60;;;;;;;;;;5036162;28;20449;-70
2022/11/03 04:41:16;;;;;;;10.83;3.47;;;;;;;;;;5035833;28;20824;-70
2022/11/03 04:43:44;;;;;;;17.67;4.80;;;;;;;;;;5035476;28;20522;-70
2022/11/03 04:46:14;;;;;;;4.97;2.00;;;;;;;;;;5035075;28;20451;-70
2022/11/03 04:48:42;;;;;;;3.40;1.80;;;;;;;;;;5035775;28;20576;-70
2022/11/03 04:51:13;;;;;;;5.93;1.83;;;;;;;;;;5036037;28;20466;-70
2022/11/03 04:53:42;;;;;;;4.20;1.17;;;;;;;;;;5036341;28;20457;-70
2022/11/03 04:56:14;;;;;;;13.83;2.23;;;;;;;;;;5034708;28;20474;-70
2022/11/03 04:58:41;;;;;;;5.43;1.83;;;;;;;;;;5035160;28;20450;-70
2022/11/03 05:01:10;;;;;;;3.53;1.53;;;;;;;;;;5043708;28;20449;-70
2022/11/03 05:03:38;;;;;;;3.90;1.93;;;;;;;;;;5055096;28;20445;-70
2022/11/03 05:06:11;;;;;;;3.63;2.10;;;;;;;;;;5055651;28;20464;-70
2022/11/03 05:08:39;;;;;;;6.23;2.37;;;;;;;;;;5052630;28;20489;-70
2022/11/03 05:11:12;;;;;;;9.53;2.30;;;;;;;;;;5054406;28;20460;-70
2022/11/03 05:13:43;;;;;;;4.60;1.63;;;;;;;;;;5055122;28;20463;-70
2022/11/03 05:16:10;;;;;;;7.50;2.27;;;;;;;;;;5053716;28;20451;-70
2022/11/03 05:18:39;;;;;;;6.63;2.30;;;;;;;;;;5053524;28;20784;-70
2022/11/03 05:21:07;;;;;;;3.47;1.97;;;;;;;;;;5053662;28;20488;-70
2022/11/03 05:23:39;;;;;;;8.43;2.07;;;;;;;;;;5053761;28;20904;-70
2022/11/03 05:26:07;;;;;;;7.40;2.10;;;;;;;;;;5053070;28;20557;-70
2022/11/03 05:28:36;;;;;;;11.10;2.23;;;;;;;;;;5053129;28;20496;-71
2022/11/03 05:31:14;;;;;;;9.43;2.20;;;;;;;;;;5053826;28;20449;-70
2022/11/03 05:33:46;;;;;;;4.57;2.37;;;;;;;;;;5052930;28;20465;-70
2022/11/03 05:36:14;;;;;;;5.77;1.73;;;;;;;;;;5052930;28;20741;-70
2022/11/03 05:38:45;;;;;;;11.77;3.30;;;;;;;;;;5053101;28;20850;-70
2022/11/03 05:41:14;;;;;;;7.90;2.63;;;;;;;;;;5053753;28;20462;-70
2022/11/03 05:43:42;;;;;;;2.67;1.60;;;;;;;;;;5049026;28;20520;-70
2022/11/03 05:46:09;;;;;;;6.30;1.67;;;;;;;;;;5033474;28;20457;-70
2022/11/03 05:48:39;;;;;;;4.33;1.83;;;;;;;;;;5040454;28;20525;-71
2022/11/03 05:51:17;;;;;;;5.40;1.70;;;;;;;;;;5034140;28;20460;-73
2022/11/03 05:53:45;;;;;;;6.33;1.60;;;;;;;;;;5044285;28;20458;-71
2022/11/03 05:56:21;;;;;;;7.27;1.90;;;;;;;;;;5046245;28;20587;-69
2022/11/03 05:58:51;;;;;;;6.13;2.07;;;;;;;;;;5053569;28;20877;-70
2022/11/03 06:01:20;;;;;;;6.07;2.23;;;;;;;;;;5057850;28;20453;-70
2022/11/03 06:03:58;;;;;;;;;;;;;;;;;;;;;
2022/11/03 06:06:31;;;;;;;4.80;1.77;;;;;;;;;;5052330;28;20463;-70
2022/11/03 06:09:00;;;;;;;6.90;2.33;;;;;;;;;;5055058;28;20496;-69
2022/11/03 06:11:28;;;;;;;2.63;1.67;;;;;;;;;;5056646;28;20493;-69
2022/11/03 06:13:56;;;;;;;5.43;1.67;;;;;;;;;;5055615;28;20450;-69
2022/11/03 06:16:35;;;;;;;5.67;1.57;;;;;;;;;;5056113;28;20827;-70
2022/11/03 06:19:04;;;;;;;5.00;2.53;;;;;;;;;;5054772;28;20457;-70
2022/11/03 06:21:33;;;;;;;6.70;1.50;;;;;;;;;;5054751;28;20449;-70
2022/11/03 06:24:01;;;;;;;8.47;1.70;;;;;;;;;;5052425;28;20751;-69
2022/11/03 06:26:29;;;;;;;4.77;2.07;;;;;;;;;;5051732;28;20449;-69
2022/11/03 06:29:01;;;;;;;8.13;2.43;;;;;;;;;;5053009;28;20489;-70
2022/11/03 06:31:30;;;;;;;7.57;1.73;;;;;;;;;;5054826;28;20491;-70
2022/11/03 06:33:58;;;;;;;3.97;1.80;;;;;;;;;;5053270;28;20457;-70
2022/11/03 06:36:33;;;;;;;6.27;1.83;;;;;;;;;;5053378;28;20452;-69
2022/11/03 06:39:23;;;;;;;5.70;1.73;;;;;;;;;;5054166;28;20556;-70
2022/11/03 06:41:51;;;;;;;3.80;1.83;;;;;;;;;;5050559;28;20449;-69
2022/11/03 06:44:20;;;;;;;5.10;1.70;;;;;;;;;;5050335;28;20563;-70
2022/11/03 06:46:48;;;;;;;5.47;1.73;;;;;;;;;;5052198;28;20526;-69
2022/11/03 06:49:33;;;;;;;6.67;2.93;;;;;;;;;;5052567;28;20489;-71
2022/11/03 06:52:05;;;;;;;4.50;2.03;;;;;;;;;;5034004;28;20950;-70
2022/11/03 06:54:33;;;;;;;9.20;1.77;;;;;;;;;;5038619;28;20495;-70
2022/11/03 06:57:01;;;;;;;6.07;2.30;;;;;;;;;;5052053;28;20888;-70
2022/11/03 06:59:32;;;;;;;4.20;1.93;;;;;;;;;;5052850;28;20456;-70
2022/11/03 07:01:59;;;;;;;5.57;2.60;;;;;;;;;;5053596;28;20521;-69
2022/11/03 07:04:37;;;;;;;8.87;2.57;;;;;;;;;;5051429;28;20601;-70
2022/11/03 07:07:05;;;;;;;12.03;2.83;;;;;;;;;;5034878;28;20466;-70
2022/11/03 07:09:44;;;;;;;7.53;2.00;;;;;;;;;;5040266;28;20446;-70
2022/11/03 07:12:17;;;;;;;5.53;3.63;;;;;;;;;;5033181;28;20639;-70
2022/11/03 07:14:53;;;;;;;6.43;2.10;;;;;;;;;;5044929;28;20473;-70
2022/11/03 07:17:22;;;;;;;4.03;2.50;;;;;;;;;;5052687;28;20453;-69
2022/11/03 07:19:53;;;;;;;6.57;2.77;;;;;;;;;;5052057;28;20473;-70
2022/11/03 07:22:24;;;;;;;6.60;2.40;;;;;;;;;;5052812;28;20441;-69
2022/11/03 07:24:56;;;;;;;5.40;1.67;;;;;;;;;;5051926;28;20980;-70
2022/11/03 07:27:25;;;;;;;7.73;2.03;;;;;;;;;;5053267;28;20887;-69
2022/11/03 07:29:54;;;;;;;4.80;1.47;;;;;;;;;;5052227;28;20559;-69
2022/11/03 07:32:24;;;;;;;6.87;2.70;;;;;;;;;;5054336;28;20453;-70
2022/11/03 07:34:53;;;;;;;11.33;2.47;;;;;;;;;;5053712;28;20487;-69
2022/11/03 07:37:22;;;;;;;5.37;2.00;;;;;;;;;;5053371;28;20904;-69
2022/11/03 07:39:51;;;;;;;4.27;1.40;;;;;;;;;;5052378;28;20573;-68
2022/11/03 07:42:25;;;;;;;7.20;2.30;;;;;;;;;;5051795;28;20466;-68
2022/11/03 07:44:56;;;;;;;7.37;2.30;;;;;;;;;;5051518;28;20457;-69
2022/11/03 07:47:25;;;;;;;9.07;3.37;;;;;;;;;;5053170;28;20485;-69
2022/11/03 07:49:53;;;;;;;8.90;2.87;;;;;;;;;;5046288;28;20462;-73
2022/11/03 07:52:21;;;;;;;8.20;1.83;;;;;;;;;;5038023;28;20821;-70
2022/11/03 07:54:51;;;;;;;7.87;2.07;;;;;;;;;;5039994;28;20886;-70
2022/11/03 07:57:21;;;;;;;6.00;2.63;;;;;;;;;;5041470;28;20469;-69
2022/11/03 07:59:52;;;;;;;5.80;1.50;;;;;;;;;;5052481;28;20543;-69
2022/11/03 08:02:25;;;;;;;7.93;2.03;;;;;;;;;;5035871;28;20466;-69
2022/11/03 08:04:54;;;;;;;3.10;1.50;;;;;;;;;;5052472;28;20454;-69
2022/11/03 08:07:21;;;;;;;5.60;1.80;;;;;;;;;;5049534;28;20540;-68
2022/11/03 08:09:49;;;;;;;9.47;2.00;;;;;;;;;;5052578;28;20778;-69
2022/11/03 08:12:19;;;;;;;8.33;1.97;;;;;;;;;;5053290;28;20473;-69
2022/11/03 08:14:51;;;;;;;3.13;1.60;;;;;;;;;;5036182;28;20454;-70
2022/11/03 08:17:22;;;;;;;5.67;1.77;;;;;;;;;;5050618;28;20753;-69
2022/11/03 08:19:49;;;;;;;4.20;1.70;;;;;;;;;;5049882;28;20836;-69
2022/11/03 08:22:16;;;;;;;7.40;2.70;;;;;;;;;;5052572;28;20464;-69
2022/11/03 08:24:44;;;;;;;4.40;2.10;;;;;;;;;;5050891;28;20481;-71
2022/11/03 08:27:11;;;;;;;5.13;1.80;;;;;;;;;;5052589;28;20472;-69
2022/11/03 08:29:38;;;;;;;8.80;2.13;;;;;;;;;;5053699;28;20464;-70
2022/11/03 08:32:08;;;;;;;4.37;2.07;;;;;;;;;;5046950;28;20488;-69
2022/11/03 08:34:41;;;;;;;6.80;2.30;;;;;;;;;;5048640;28;20549;-69
2022/11/03 08:37:10;;;;;;;3.27;1.37;;;;;;;;;;5040635;28;20465;-69
2022/11/03 08:39:38;;;;;;;5.20;2.40;;;;;;;;;;5043320;28;20528;-69
2022/11/03 08:42:07;;;;;;;2.53;1.60;;;;;;;;;;5044008;28;22277;-69
2022/11/03 08:44:45;;;;;;;6.13;2.43;;;;;;;;;;5053659;28;20674;-72
2022/11/03 08:47:21;;;;;;;5.80;1.87;;;;;;;;;;5051415;28;20462;-72
2022/11/03 08:49:51;;;;;;;5.57;2.37;;;;;;;;;;5052420;28;20456;-72
2022/11/03 08:52:20;;;;;;;8.77;2.20;;;;;;;;;;5050189;28;20493;-72
2022/11/03 08:54:47;;;;;;;13.20;3.57;;;;;;;;;;5040655;28;22240;-72
2022/11/03 08:57:21;;;;;;;6.10;1.77;;;;;;;;;;5042882;28;20496;-72
2022/11/03 08:59:48;;;;;;;8.57;2.17;;;;;;;;;;5051932;28;20474;-72
2022/11/03 09:02:17;;;;;;;6.50;2.23;;;;;;;;;;5052262;28;20558;-72
2022/11/03 09:04:58;;;;;;;7.30;3.47;;;;;;;;;;5046715;28;20466;-73
2022/11/03 09:07:29;;;;;;;3.30;1.33;;;;;;;;;;5053158;28;21798;-72
2022/11/03 09:10:01;;;;;;;4.40;1.60;;;;;;;;;;5044853;28;20473;-73
2022/11/03 09:12:31;;;;;;;2.73;1.30;;;;;;;;;;5052890;28;20544;-73
2022/11/03 09:15:01;;;;;;;5.90;2.00;;;;;;;;;;5045475;28;20461;-74
2022/11/03 09:17:33;;;;;;;6.53;2.20;;;;;;;;;;5049855;28;20473;-71
2022/11/03 09:20:03;;;;;;;5.67;1.67;;;;;;;;;;5041984;28;20578;-73
2022/11/03 09:22:31;;;;;;;8.43;2.37;;;;;;;;;;5051741;28;20485;-72
2022/11/03 09:24:59;;;;;;;6.30;1.60;;;;;;;;;;5048195;28;20606;-73
2022/11/03 09:27:37;;;;;;;3.33;1.63;;;;;;;;;;5047239;28;20536;-72
2022/11/03 09:30:11;;;;;;;5.70;2.03;;;;;;;;;;5046856;28;20917;-72
2022/11/03 09:32:45;;;;;;;10.70;3.20;;;;;;;;;;5045502;28;20465;-72
2022/11/03 09:35:13;;;;;;;4.20;1.80;;;;;;;;;;5056488;28;20455;-72
2022/11/03 09:37:40;;;;;;;6.40;1.73;;;;;;;;;;5051549;28;20563;-73
2022/11/03 09:40:15;;;;;;;7.53;1.97;;;;;;;;;;5045303;28;20470;-72
2022/11/03 09:42:46;;;;;;;4.93;1.80;;;;;;;;;;5048178;28;20476;-71
2022/11/03 09:45:14;;;;;;;6.20;2.70;;;;;;;;;;5052488;28;20996;-72
2022/11/03 09:47:45;;;;;;;3.60;1.20;;;;;;;;;;5050821;28;20892;-72
2022/11/03 09:50:21;;;;;;;6.23;2.00;;;;;;;;;;5050106;28;20924;-73
2022/11/03 09:52:50;;;;;;;4.20;1.80;;;;;;;;;;5051425;28;20469;-71
2022/11/03 09:55:26;;;;;;;15.43;2.50;;;;;;;;;;5049224;28;20492;-73
2022/11/03 09:58:01;;;;;;;3.90;1.97;;;;;;;;;;5050292;28;20496;-72
2022/11/03 10:00:31;;;;;;;15.17;3.50;;;;;;;;;;5052830;28;21107;-73
2022/11/03 10:03:00;;;;;;;6.00;1.73;;;;;;;;;;5053370;28;20478;-73
2022/11/03 10:05:36;;;;;;;5.90;2.10;;;;;;;;;;5049683;28;20454;-72
2022/11/03 10:08:14;;;;;;;6.50;2.03;;;;;;;;;;5054117;28;20481;-72
2022/11/03 10:10:47;;;;;;;5.43;2.17;;;;;;;;;;5052571;28;20466;-73
2022/11/03 10:13:21;;;;;;;7.20;1.83;;;;;;;;;;5052195;28;20840;-72
2022/11/03 10:15:48;;;;;;;4.27;1.87;;;;;;;;;;5050429;28;20548;-73
2022/11/03 10:18:22;;;;;;;6.57;2.00;;;;;;;;;;5049605;28;20461;-73
2022/11/03 10:21:13;;;;;;;10.20;3.50;;;;;;;;;;5045655;28;20465;-73
2022/11/03 10:23:49;;;;;;;8.50;1.77;;;;;;;;;;5052880;28;20496;-73
2022/11/03 10:26:21;;;;;;;9.93;2.67;;;;;;;;;;5035367;28;20480;-72
2022/11/03 10:28:59;;;;;;;10.23;3.00;;;;;;;;;;5048192;28;20508;-72
2022/11/03 10:31:48;;;;;;;6.50;1.63;;;;;;;;;;5050868;28;20476;-72
2022/11/03 10:34:26;;;;;;;4.40;1.70;;;;;;;;;;5052053;28;20469;-72
2022/11/03 10:37:11;;;;;;;4.37;1.70;;;;;;;;;;5048339;28;20534;-73
2022/11/03 10:39:45;;;;;;;4.47;1.40;;;;;;;;;;5042669;28;20520;-72
2022/11/03 10:42:22;;;;;;;8.67;2.37;;;;;;;;;;5048706;28;20461;-72
2022/11/03 10:44:54;;;;;;;7.53;2.33;;;;;;;;;;5050152;28;20487;-72
2022/11/03 10:47:24;;;;;;;11.00;2.30;;;;;;;;;;5047028;28;20473;-71
2022/11/03 10:49:53;;;;;;;6.33;3.63;;;;;;;;;;5049154;28;20496;-72
2022/11/03 10:52:22;;;;;;;3.97;2.30;;;;;;;;;;5046312;28;20466;-72
2022/11/03 10:54:50;;;;;;;9.47;1.73;;;;;;;;;;5057520;28;20496;-72
2022/11/03 10:57:18;;;;;;;4.33;2.40;;;;;;;;;;5055622;28;20492;-71
2022/11/03 10:59:57;;;;;;;6.47;2.20;;;;;;;;;;5047558;28;21077;-72
2022/11/03 11:02:26;;;;;;;5.33;2.20;;;;;;;;;;5052650;28;20550;-73
2022/11/03 11:04:58;;;;;;;7.87;2.27;;;;;;;;;;5046372;28;20457;-73
2022/11/03 11:07:28;;;;;;;7.33;1.83;;;;;;;;;;5051812;28;20463;-73
2022/11/03 11:09:59;;;;;;;5.83;2.23;;;;;;;;;;5045632;28;20524;-72
2022/11/03 11:12:28;;;;;;;4.50;1.73;;;;;;;;;;5052363;28;20886;-72
2022/11/03 11:15:10;;;;;;;4.23;1.37;;;;;;;;;;5056697;28;20652;-73
2022/11/03 11:17:45;;;;;;;3.67;1.33;;;;;;;;;;5052862;28;20492;-73
2022/11/03 11:20:33;;;;;;;6.83;1.73;;;;;;;;;;5054019;28;20947;-72
2022/11/03 11:23:19;;;;;;;7.03;1.30;;;;;;;;;;5049486;28;20474;-72
2022/11/03 11:26:14;;;;;;;3.93;1.70;;;;;;;;;;5042979;28;20568;-71
2022/11/03 11:29:08;;;;;;;4.83;1.30;;;;;;;;;;4987035;28;20484;-73
2022/11/03 11:31:40;;;;;;;7.43;2.13;;;;;;;;;;5009739;28;21138;-74
2022/11/03 11:34:26;;;;;;;8.80;1.90;;;;;;;;;;5057842;28;20534;-71
2022/11/03 11:37:30;;;;;;;6.40;1.77;;;;;;;;;;5046352;28;20473;-72
2022/11/03 11:39:57;;;;;;;9.47;2.10;;;;;;;;;;5054509;28;20513;-72
2022/11/03 11:42:25;;;;;;;10.67;4.00;;;;;;;;;;5041993;28;20457;-74
2022/11/03 11:45:01;;;;;;;9.50;2.33;;;;;;;;;;5047321;28;20469;-73
2022/11/03 11:47:42;;;;;;;6.50;1.50;;;;;;;;;;5038530;28;20486;-73
2022/11/03 11:50:23;;;;;;;8.40;1.70;;;;;;;;;;5046811;28;20461;-70
2022/11/03 11:52:52;;;;;;;7.40;1.73;;;;;;;;;;5053414;28;20530;-73
2022/11/03 11:55:23;;;;;;;7.80;2.53;;;;;;;;;;5052384;28;20887;-71
2022/11/03 11:57:53;;;;;;;5.57;2.37;;;;;;;;;;5054637;28;20485;-73
2022/11/03 12:00:28;;;;;;;5.80;2.30;;;;;;;;;;5039839;28;20463;-73
2022/11/03 12:02:55;;;;;;;8.40;2.60;;;;;;;;;;5049245;28;20488;-72
2022/11/03 12:05:24;;;;;;;10.07;2.40;;;;;;;;;;5052982;28;20472;-71
2022/11/03 12:07:53;;;;;;;3.97;2.10;;;;;;;;;;5050981;28;20509;-72
2022/11/03 12:10:25;;;;;;;7.73;1.63;;;;;;;;;;5046724;28;20462;-71
2022/11/03 12:12:57;;;;;;;4.47;2.10;;;;;;;;;;5043008;28;20496;-71
2022/11/03 12:15:42;;;;;;;4.47;1.63;;;;;;;;;;5060816;22;20486;-77
2022/11/03 12:18:28;;;;;;;5.27;2.30;;;;;;;;;;5028650;28;20478;-77
2022/11/03 12:20:56;;;;;;;4.57;2.30;;;;;;;;;;5016763;28;21165;-78
2022/11/03 12:23:36;;;;;;;5.80;2.03;;;;;;;;;;5025698;28;20459;-76
2022/11/03 12:26:03;;;;;;;11.30;3.27;;;;;;;;;;5025026;28;20473;-77
2022/11/03 12:28:38;;;;;;;5.87;1.40;;;;;;;;;;5020725;28;20578;-79
2022/11/03 12:31:05;;;;;;;5.83;1.80;;;;;;;;;;5017791;28;20473;-76
2022/11/03 12:33:33;;;;;;;6.20;1.83;;;;;;;;;;5024991;28;20458;-77
2022/11/03 12:36:02;;;;;;;6.73;2.80;;;;;;;;;;5022036;28;20459;-77
2022/11/03 12:38:31;;;;;;;12.53;4.10;;;;;;;;;;5031219;28;20477;-77
2022/11/03 12:41:19;;;;;;;11.70;4.27;;;;;;;;;;5022950;28;20472;-78
2022/11/03 12:43:45;;;;;;;9.43;4.60;;;;;;;;;;5019337;28;20462;-79
2022/11/03 12:46:13;;;;;;;5.73;3.17;;;;;;;;;;5018811;28;20520;-78
2022/11/03 12:48:42;;;;;;;7.80;3.53;;;;;;;;;;5020049;28;20471;-79
2022/11/03 13:16:10;;;;;;;10.80;4.07;;;;;;;;;;3293628;26;20489;-74
2022/11/03 13:18:37;;;;;;;4.40;1.77;;;;;;;;;;4990614;28;20464;-73
2022/11/03 13:21:05;;;;;;;9.40;4.20;;;;;;;;;;4978630;28;20546;-73
2022/11/03 13:23:45;;;;;;;9.13;2.60;;;;;;;;;;4975061;28;20888;-72
2022/11/03 13:26:16;;;;;;;7.33;2.60;;;;;;;;;;4976956;28;20966;-73
2022/11/03 13:28:53;;;;;;;8.17;2.33;;;;;;;;;;4989963;28;20480;-71
2022/11/03 13:31:31;;;;;;;7.53;3.20;;;;;;;;;;4993537;28;20486;-71
2022/11/03 13:33:58;;;;;;;7.33;2.50;;;;;;;;;;4992724;28;20532;-71
2022/11/03 13:36:27;;;;;;;12.93;3.30;;;;;;;;;;4989762;28;20901;-69
2022/11/03 13:38:54;;;;;;;4.70;2.20;;;;;;;;;;4974641;28;20459;-70
2022/11/03 13:41:21;;;;;;;5.90;2.17;;;;;;;;;;4977623;28;21000;-71
2022/11/03 13:43:48;;;;;;;5.73;2.00;;;;;;;;;;4976230;28;20456;-70
2022/11/03 13:46:20;;;;;;;4.67;1.60;;;;;;;;;;4978204;28;20464;-70
2022/11/03 13:48:48;;;;;;;3.60;1.60;;;;;;;;;;4992312;28;20484;-69
2022/11/03 13:51:17;;;;;;;4.87;1.87;;;;;;;;;;4986088;28;20578;-70
2022/11/03 13:53:55;;;;;;;6.20;2.80;;;;;;;;;;4975648;28;20468;-68
2022/11/03 13:56:27;;;;;;;6.67;2.87;;;;;;;;;;4983567;28;20495;-71
2022/11/03 13:58:55;;;;;;;6.90;2.20;;;;;;;;;;4978357;28;20778;-70
2022/11/03 14:01:31;;;;;;;5.63;2.50;;;;;;;;;;4983847;28;20552;-71
2022/11/03 14:04:04;;;;;;;10.43;2.33;;;;;;;;;;4974695;28;20828;-71
2022/11/03 14:06:35;;;;;;;8.50;2.10;;;;;;;;;;4973578;28;20469;-70
2022/11/03 14:09:02;;;;;;;6.90;2.17;;;;;;;;;;4973256;28;20488;-70
2022/11/03 14:19:53;;;;;;;6.90;3.07;;;;;;;;;;4994294;28;20499;-70
2022/11/03 14:22:20;;;;;;;7.30;2.20;;;;;;;;;;4994170;28;20546;-71
2022/11/03 14:24:51;;;;;;;5.97;2.30;;;;;;;;;;4991081;28;20480;-71
2022/11/03 14:27:23;;;;;;;6.90;1.87;;;;;;;;;;4977376;28;20444;-70
2022/11/03 14:29:50;;;;;;;10.63;2.00;;;;;;;;;;4999076;28;21135;-70
2022/11/03 14:32:32;;;;;;;6.43;1.90;;;;;;;;;;4983659;28;20455;-70
2022/11/03 14:43:31;;;;;;;7.50;2.77;;;;;;;;;;4976894;28;20471;-70
2022/11/03 14:46:06;;;;;;;47.07;22.10;;;;;;;;;;4985721;28;20876;-70
2022/11/03 14:48:38;;;;;;;8.30;3.90;;;;;;;;;;4977482;28;20483;-70
2022/11/03 14:51:20;;;;;;;12.90;5.03;;;;;;;;;;4985170;28;20459;-71
2022/11/03 15:00:02;;;;;;;5.33;2.10;;;;;;;;;;4940132;28;20471;-71
2022/11/03 15:02:49;;;;;;;;;;;;;;;;;;;;;
2022/11/03 15:13:53;;;;;;;5.27;3.07;;;;;;;;;;4992878;28;20448;-71
2022/11/03 15:16:26;;;;;;;7.50;2.70;;;;;;;;;;4987401;28;20467;-71
2022/11/03 15:18:54;;;;;;;3.70;2.20;;;;;;;;;;4985143;28;20491;-70
2022/11/03 15:24:35;;;;;;;6.97;2.50;;;;;;;;;;4986774;28;20504;-71
2022/11/03 15:27:05;;;;;;;9.10;2.23;;;;;;;;;;4985535;28;20962;-71
2022/11/03 15:29:43;;;;;;;10.13;2.97;;;;;;;;;;4994813;28;20496;-72
2022/11/03 15:32:18;;;;;;;10.03;2.10;;;;;;;;;;4976404;28;20484;-70
2022/11/03 15:34:55;;;;;;;11.30;2.50;;;;;;;;;;4975912;28;21131;-70
2022/11/03 15:37:32;;;;;;;8.03;2.97;;;;;;;;;;4983975;28;20579;-71
2022/11/03 15:40:21;;;;;;;7.00;2.40;;;;;;;;;;4980951;28;20494;-70
2022/11/03 15:43:00;;;;;;;5.80;2.73;;;;;;;;;;4982574;28;20480;-70
2022/11/03 15:45:36;;;;;;;3.80;2.20;;;;;;;;;;4987068;28;20476;-70
2022/11/03 15:48:26;;;;;;;6.90;2.67;;;;;;;;;;4985760;28;20498;-69
2022/11/03 15:50:58;;;;;;;4.33;2.03;;;;;;;;;;4994223;28;20448;-69
2022/11/03 15:53:42;;;;;;;9.10;2.90;;;;;;;;;;4986137;28;20492;-72
2022/11/03 15:56:26;;;;;;;9.83;2.83;;;;;;;;;;4967914;28;21650;-70
2022/11/03 15:59:21;;;;;;;3.00;2.50;;;;;;;;;;4975903;28;20563;-69
2022/11/03 16:02:06;;;;;;;6.87;2.40;;;;;;;;;;4986111;28;20890;-70
2022/11/03 16:04:43;;;;;;;4.80;2.60;;;;;;;;;;4984779;28;20463;-70
2022/11/03 16:10:32;;;;;;;7.60;2.50;;;;;;;;;;4979220;28;20899;-71
2022/11/03 16:12:59;;;;;;;6.63;2.77;;;;;;;;;;4995230;28;20455;-70
2022/11/03 16:15:29;;;;;;;7.30;2.53;;;;;;;;;;4994730;28;20915;-70
2022/11/03 16:18:08;;;;;;;7.63;2.77;;;;;;;;;;4981841;28;20529;-71
2022/11/03 16:20:38;;;;;;;12.10;3.90;;;;;;;;;;4977259;28;20467;-70
2022/11/03 16:23:14;;;;;;;9.07;3.27;;;;;;;;;;4976560;28;20457;-70
2022/11/03 16:25:47;;;;;;;8.43;3.50;;;;;;;;;;4974089;28;20453;-70
2022/11/03 16:28:22;;;;;;;8.03;3.07;;;;;;;;;;4976460;28;20489;-70
2022/11/03 16:31:05;;;;;;;10.20;3.17;;;;;;;;;;4973807;28;20434;-69